Time;durP1;ratioP1;P1;durP2;ratioP2;P2;SDS_P1;SDS_P2;PMS_P1;PMS_P2;Temp;Humidity;BMP_temperature;BMP_pressure;BME280_temperature;BME280_humidity;BME280_pressure;Samples;Min_cycle;Max_cycle;Signal;HPM_P1;HPM_P2
2023/03/01 00:01:13;;;;;;;2.78;2.08;;;;;;;6.02;76.00;103084.03;5048821;28;20136;-47
2023/03/01 00:03:39;;;;;;;9.70;1.95;;;;;;;6.06;76.22;103076.94;5049667;28;20053;-47
2023/03/01 00:06:06;;;;;;;9.05;4.00;;;;;;;6.11;76.10;103079.75;5060095;28;20044;-50
2023/03/01 00:08:34;;;;;;;2.47;1.30;;;;;;;6.13;76.33;103069.31;5031461;28;20052;-49
2023/03/01 00:11:11;;;;;;;1.15;0.70;;;;;;;6.16;76.38;103066.03;5049442;28;20117;-48
2023/03/01 00:13:38;;;;;;;2.42;1.15;;;;;;;6.18;76.21;103060.28;5047646;28;20492;-47
2023/03/01 00:16:08;;;;;;;3.28;1.00;;;;;;;6.19;76.66;103057.28;5049688;28;20156;-46
2023/03/01 00:18:34;;;;;;;5.53;1.17;;;;;;;6.22;76.86;103059.50;5049088;28;20143;-52
2023/03/01 00:21:01;;;;;;;5.35;0.75;;;;;;;6.24;76.76;103057.31;5042622;28;20041;-46
2023/03/01 00:23:28;;;;;;;4.47;0.70;;;;;;;6.27;76.89;103059.56;5048851;28;20041;-48
2023/03/01 00:25:55;;;;;;;3.92;0.65;;;;;;;6.33;77.39;103053.00;5048175;28;20498;-51
2023/03/01 00:28:22;;;;;;;3.90;0.60;;;;;;;6.35;77.52;103059.09;5047081;28;20040;-47
2023/03/01 00:30:49;;;;;;;3.08;0.57;;;;;;;6.39;77.53;103054.72;5047900;28;20072;-46
2023/03/01 00:33:16;;;;;;;0.95;0.50;;;;;;;6.41;77.47;103052.53;5049450;28;20132;-46
2023/03/01 00:35:44;;;;;;;2.92;0.68;;;;;;;6.44;77.44;103062.16;5048660;28;20053;-47
2023/03/01 00:38:10;;;;;;;4.13;0.40;;;;;;;6.44;77.46;103056.66;5048407;28;20445;-46
2023/03/01 00:40:37;;;;;;;1.20;0.30;;;;;;;6.44;77.21;103062.16;5043814;28;20041;-46
2023/03/01 00:43:04;;;;;;;3.20;0.68;;;;;;;6.45;77.00;103059.19;5045755;28;20144;-49
2023/03/01 00:45:31;;;;;;;2.20;0.85;;;;;;;6.48;77.03;103050.41;5045178;28;20041;-45
2023/03/01 00:47:57;;;;;;;4.03;0.63;;;;;;;6.48;77.04;103050.41;5046748;28;20076;-50
2023/03/01 00:50:25;;;;;;;2.83;0.47;;;;;;;6.50;77.14;103050.97;5052199;28;20044;-45
2023/03/01 00:52:55;;;;;;;4.05;1.23;;;;;;;6.50;77.33;103050.97;5045329;28;20049;-45
2023/03/01 00:55:23;;;;;;;1.88;0.50;;;;;;;6.48;77.01;103047.66;5045750;28;20064;-44
2023/03/01 00:57:50;;;;;;;1.95;0.47;;;;;;;6.47;77.31;103051.47;5046019;28;20140;-45
2023/03/01 01:00:18;;;;;;;0.80;0.20;;;;;;;6.46;77.30;103052.56;5047596;28;20044;-46
2023/03/01 01:02:45;;;;;;;0.68;0.40;;;;;;;6.44;77.44;103059.41;5046161;28;20132;-47
2023/03/01 01:05:12;;;;;;;0.47;0.30;;;;;;;6.39;77.40;103054.72;5048081;28;20490;-45
2023/03/01 01:07:39;;;;;;;2.55;0.20;;;;;;;6.37;77.30;103051.41;5048654;28;20391;-46
2023/03/01 01:10:06;;;;;;;0.90;0.40;;;;;;;6.36;77.34;103046.97;5055621;28;20049;-46
2023/03/01 01:12:33;;;;;;;1.38;0.40;;;;;;;6.35;77.18;103050.84;5048720;28;20422;-50
2023/03/01 01:14:59;;;;;;;1.48;0.22;;;;;;;6.35;77.38;103041.75;5048330;28;20048;-46
2023/03/01 01:17:26;;;;;;;1.65;0.20;;;;;;;6.33;77.35;103042.00;5047867;28;20482;-45
2023/03/01 01:19:53;;;;;;;6.13;0.43;;;;;;;6.33;77.43;103044.75;5050919;28;20056;-44
2023/03/01 01:22:19;;;;;;;2.35;0.20;;;;;;;6.33;77.46;103033.75;5048591;28;20049;-44
2023/03/01 01:24:46;;;;;;;0.77;0.38;;;;;;;6.34;77.58;103040.06;5055251;28;20064;-45
2023/03/01 01:27:12;;;;;;;3.33;0.30;;;;;;;6.32;77.44;103045.84;5048188;28;20040;-51
2023/03/01 01:29:39;;;;;;;2.83;0.28;;;;;;;6.32;77.20;103037.59;5048143;28;20055;-48
2023/03/01 01:32:06;;;;;;;0.82;0.25;;;;;;;6.30;76.92;103056.25;5048449;28;20052;-47
2023/03/01 01:34:32;;;;;;;1.17;0.38;;;;;;;6.31;76.71;103041.44;5048150;28;20506;-46
2023/03/01 01:37:02;;;;;;;0.65;0.40;;;;;;;6.30;76.54;103045.25;5048032;28;20475;-44
2023/03/01 01:39:29;;;;;;;0.40;0.20;;;;;;;6.30;76.06;103047.19;5050457;28;20059;-44
2023/03/01 01:41:56;;;;;;;0.98;0.20;;;;;;;6.29;75.99;103043.63;5051915;28;20045;-45
2023/03/01 01:44:28;;;;;;;4.57;0.98;;;;;;;6.29;75.91;103038.13;5047199;28;20132;-49
2023/03/01 01:47:03;;;;;;;2.15;0.20;;;;;;;6.29;75.51;103034.53;5045881;28;20050;-48
2023/03/01 01:49:37;;;;;;;1.40;0.40;;;;;;;6.30;75.64;103034.25;5048006;28;20044;-47
2023/03/01 01:52:09;;;;;;;3.25;1.02;;;;;;;6.31;75.52;103030.44;5050448;28;20041;-52
2023/03/01 01:54:49;;;;;;;9.23;1.17;;;;;;;6.31;75.32;103035.94;5028866;28;20044;-50
2023/03/01 01:57:21;;;;;;;1.70;0.55;;;;;;;6.32;75.58;103025.75;5052973;28;20079;-46
2023/03/01 01:59:51;;;;;;;;;;;;;;;6.33;75.55;103019.97;5047755;28;20049;-47
2023/03/01 02:02:19;;;;;;;1.92;0.43;;;;;;;6.31;75.63;103018.59;5048215;28;20337;-47
2023/03/01 02:04:52;;;;;;;0.85;0.57;;;;;;;6.30;75.66;103008.69;5046282;28;20061;-51
2023/03/01 02:07:22;;;;;;;3.50;0.60;;;;;;;6.29;75.72;103004.28;5048155;28;20534;-48
2023/03/01 02:09:52;;;;;;;1.42;0.40;;;;;;;6.29;75.79;102996.00;5051219;28;20057;-46
2023/03/01 02:12:24;;;;;;;1.13;0.47;;;;;;;6.30;75.81;102997.69;5039856;28;20045;-48
2023/03/01 02:14:50;;;;;;;0.93;0.28;;;;;;;6.30;75.83;102983.94;5047330;28;20418;-48
2023/03/01 02:17:19;;;;;;;1.90;0.50;;;;;;;6.29;75.93;102974.84;5050639;28;20388;-44
2023/03/01 02:20:14;;;;;;;5.78;0.47;;;;;;;6.31;75.79;102974.56;5051304;28;20079;-44
2023/03/01 02:22:44;;;;;;;2.15;0.38;;;;;;;6.31;75.77;102969.91;5053885;28;20902;-45
2023/03/01 02:25:30;;;;;;;0.30;0.30;;;;;;;6.32;75.51;102973.50;5051179;28;20135;-45
2023/03/01 02:28:31;;;;;;;1.55;0.40;;;;;;;6.31;75.66;102956.16;5033335;28;20441;-45
2023/03/01 02:33:45;;;;;;;5.38;0.52;;;;;;;6.28;75.11;102964.91;5043643;28;20076;-46
2023/03/01 02:36:28;;;;;;;0.57;0.10;;;;;;;6.30;75.05;102951.72;5049264;28;20068;-47
2023/03/01 02:38:59;;;;;;;2.25;0.30;;;;;;;6.30;75.09;102950.94;5051338;28;20818;-47
2023/03/01 02:41:28;;;;;;;1.60;0.60;;;;;;;6.31;75.17;102947.91;5051065;28;20561;-44
2023/03/01 02:43:55;;;;;;;2.83;0.15;;;;;;;6.31;74.84;102950.66;5051436;28;20507;-45
2023/03/01 02:46:24;;;;;;;0.68;0.40;;;;;;;6.30;75.05;102946.22;5050588;28;20098;-45
2023/03/01 02:48:56;;;;;;;2.00;0.25;;;;;;;6.31;74.75;102953.41;5046634;28;20099;-48
2023/03/01 02:51:32;;;;;;;1.65;0.20;;;;;;;6.31;74.73;102942.41;5047182;28;20045;-44
2023/03/01 02:54:17;;;;;;;3.25;0.40;;;;;;;6.33;74.81;102939.41;5048605;28;20052;-47
2023/03/01 02:56:48;;;;;;;2.72;0.30;;;;;;;6.32;74.87;102935.81;5045922;28;20033;-45
2023/03/01 02:59:18;;;;;;;3.13;0.20;;;;;;;6.32;74.84;102934.97;5048344;28;20548;-44
2023/03/01 03:01:44;;;;;;;3.63;1.35;;;;;;;6.33;75.03;102936.66;5081875;22;20429;-44
2023/03/01 03:04:20;;;;;;;0.30;0.20;;;;;;;6.32;74.72;102924.81;5046175;28;20072;-47
2023/03/01 03:06:49;;;;;;;4.78;0.63;;;;;;;6.32;74.93;102933.06;5040966;28;20059;-45
2023/03/01 03:09:17;;;;;;;0.82;0.22;;;;;;;6.33;74.94;102920.94;5048587;28;20055;-51
2023/03/01 03:11:44;;;;;;;0.68;0.30;;;;;;;6.33;74.88;102918.19;5048406;28;20045;-46
2023/03/01 03:14:13;;;;;;;2.03;0.30;;;;;;;6.35;74.96;102931.69;5043450;28;20053;-44
2023/03/01 03:16:45;;;;;;;2.05;0.47;;;;;;;6.34;75.02;102930.88;5043707;28;20033;-48
2023/03/01 03:19:12;;;;;;;1.45;0.20;;;;;;;6.36;74.68;102928.69;5049987;28;20147;-46
2023/03/01 03:21:39;;;;;;;4.15;0.28;;;;;;;6.36;74.65;102925.09;5051423;28;20044;-44
2023/03/01 03:24:05;;;;;;;0.30;0.20;;;;;;;6.35;74.92;102926.19;5032294;28;20053;-49
2023/03/01 03:26:32;;;;;;;5.20;0.52;;;;;;;6.33;74.89;102918.19;5050637;28;20040;-45
2023/03/01 03:28:59;;;;;;;2.20;0.50;;;;;;;6.33;74.73;102923.69;5032002;28;20490;-45
2023/03/01 03:31:26;;;;;;;4.68;0.47;;;;;;;6.33;74.84;102920.94;5050061;28;20053;-47
2023/03/01 03:33:53;;;;;;;2.92;0.45;;;;;;;6.30;74.86;102915.97;5050024;28;20037;-49
2023/03/01 03:36:23;;;;;;;1.48;0.30;;;;;;;6.28;74.94;102918.16;5050073;28;20091;-44
2023/03/01 03:38:50;;;;;;;1.85;0.30;;;;;;;6.25;74.86;102904.94;5032686;28;20400;-44
2023/03/01 03:41:17;;;;;;;1.15;0.50;;;;;;;6.24;74.97;102914.28;5050242;28;20041;-46
2023/03/01 03:43:44;;;;;;;2.67;0.52;;;;;;;6.24;74.94;102905.22;5049939;28;20036;-45
2023/03/01 03:46:11;;;;;;;2.75;0.50;;;;;;;6.24;75.04;102908.78;5048964;28;20045;-49
2023/03/01 03:48:43;;;;;;;0.82;0.32;;;;;;;6.23;75.03;102912.63;5045895;28;20049;-44
2023/03/01 03:51:13;;;;;;;2.08;0.85;;;;;;;6.23;74.90;102906.28;5048279;28;20106;-45
2023/03/01 03:53:41;;;;;;;3.13;0.50;;;;;;;6.22;75.01;102913.72;5044061;28;20052;-51
2023/03/01 03:56:08;;;;;;;0.70;0.20;;;;;;;6.23;74.97;102917.28;5043086;28;20044;-48
2023/03/01 03:58:35;;;;;;;2.10;0.32;;;;;;;6.21;74.82;102914.81;5046584;28;20041;-47
2023/03/01 04:01:02;;;;;;;0.98;0.43;;;;;;;6.20;74.99;102912.31;5045630;28;20064;-45
2023/03/01 04:03:31;;;;;;;1.05;0.55;;;;;;;6.19;74.77;102905.16;5043401;28;20041;-45
2023/03/01 04:05:59;;;;;;;0.73;0.25;;;;;;;6.17;74.75;102899.91;5045451;28;20045;-45
2023/03/01 04:08:27;;;;;;;2.85;0.40;;;;;;;6.18;74.71;102909.84;5043036;28;20179;-47
2023/03/01 04:11:25;;;;;;;1.42;0.30;;;;;;;6.19;74.58;102896.91;5047912;28;20052;-45
2023/03/01 04:13:47;;;;;;;0.45;0.20;;;;;;;6.18;74.49;102896.09;5045020;28;20452;-51
2023/03/01 04:16:13;;;;;;;0.57;0.40;;;;;;;6.16;74.58;102903.78;5041952;28;20044;-45
2023/03/01 04:18:40;;;;;;;1.95;0.20;;;;;;;6.15;74.49;102896.59;5047774;28;20157;-45
2023/03/01 04:21:07;;;;;;;1.10;0.60;;;;;;;6.15;74.39;102899.34;5041166;28;20068;-44
2023/03/01 04:23:33;;;;;;;1.23;0.20;;;;;;;6.15;74.24;102896.59;5045662;28;20045;-47
2023/03/01 04:26:00;;;;;;;1.13;0.30;;;;;;;6.15;74.46;102904.84;5040811;28;20049;-44
2023/03/01 04:28:35;;;;;;;0.73;0.30;;;;;;;6.12;74.36;102897.97;5046336;28;20052;-45
2023/03/01 04:31:13;;;;;;;3.22;0.28;;;;;;;6.12;74.36;102886.97;5047592;28;20041;-45
2023/03/01 04:33:46;;;;;;;1.13;0.30;;;;;;;6.13;74.30;102894.13;5041535;28;20045;-50
2023/03/01 04:36:14;;;;;;;3.95;0.60;;;;;;;6.13;74.33;102893.31;5043938;28;20045;-46
2023/03/01 04:38:42;;;;;;;1.80;0.40;;;;;;;6.14;74.03;102886.72;5045461;28;20140;-44
2023/03/01 04:41:10;;;;;;;1.30;0.63;;;;;;;6.14;74.34;102884.78;5047645;28;20509;-47
2023/03/01 04:43:37;;;;;;;1.80;0.40;;;;;;;6.15;74.21;102877.34;5036089;28;20044;-46
2023/03/01 04:46:10;;;;;;;3.08;0.22;;;;;;;6.15;74.44;102882.84;5029466;28;20143;-45
2023/03/01 04:48:42;;;;;;;1.52;0.30;;;;;;;6.13;74.29;102880.38;5054577;28;20043;-47
2023/03/01 04:51:08;;;;;;;1.40;0.40;;;;;;;6.13;74.38;102868.56;5047702;28;20045;-45
2023/03/01 04:53:38;;;;;;;2.78;0.40;;;;;;;6.12;74.17;102873.22;5043669;28;20044;-47
2023/03/01 04:56:06;;;;;;;1.23;0.17;;;;;;;6.11;74.42;102876.25;5040958;28;20040;-46
2023/03/01 04:58:32;;;;;;;3.40;0.47;;;;;;;6.09;74.52;102873.72;5048193;28;20043;-45
2023/03/01 05:00:59;;;;;;;4.85;1.08;;;;;;;6.08;74.39;102880.34;5044646;28;20433;-45
2023/03/01 05:03:26;;;;;;;1.67;0.40;;;;;;;6.06;74.63;102876.22;5047166;28;20049;-45
2023/03/01 05:05:52;;;;;;;4.10;0.28;;;;;;;6.05;74.39;102871.78;5047330;28;20052;-49
2023/03/01 05:08:20;;;;;;;1.38;0.35;;;;;;;6.06;74.62;102867.97;5046815;28;20397;-45
2023/03/01 05:10:52;;;;;;;3.20;0.45;;;;;;;6.04;74.58;102868.19;5027381;28;20041;-47
2023/03/01 05:13:20;;;;;;;2.85;0.55;;;;;;;6.05;74.54;102860.78;5043931;28;20045;-45
2023/03/01 05:15:56;;;;;;;0.80;0.60;;;;;;;6.05;74.67;102866.28;5043873;28;21338;-45
2023/03/01 05:18:25;;;;;;;2.40;0.30;;;;;;;6.04;74.66;102865.44;5042528;28;20055;-46
2023/03/01 05:20:55;;;;;;;3.03;0.50;;;;;;;6.04;74.68;102868.19;5053603;28;20055;-44
2023/03/01 05:23:22;;;;;;;0.70;0.17;;;;;;;6.03;74.68;102862.97;5049503;28;20033;-45
2023/03/01 05:25:52;;;;;;;3.50;0.55;;;;;;;6.02;74.52;102862.16;5030375;28;20052;-49
2023/03/01 05:28:20;;;;;;;0.68;0.30;;;;;;;6.02;74.50;102862.16;5047896;28;20396;-45
2023/03/01 05:30:47;;;;;;;0.65;0.22;;;;;;;6.03;74.79;102860.22;5048173;28;20045;-45
2023/03/01 05:33:14;;;;;;;1.05;0.20;;;;;;;6.01;74.44;102851.41;5048396;28;20144;-45
2023/03/01 05:35:44;;;;;;;1.60;0.38;;;;;;;6.01;74.65;102851.41;5048044;28;20060;-46
2023/03/01 05:38:13;;;;;;;1.45;0.30;;;;;;;6.02;74.54;102856.66;5048225;28;20162;-44
2023/03/01 05:40:41;;;;;;;1.80;0.55;;;;;;;6.03;74.41;102851.97;5048184;28;20060;-47
2023/03/01 05:43:07;;;;;;;1.10;0.40;;;;;;;6.02;74.40;102847.56;5046115;28;20041;-47
2023/03/01 05:45:36;;;;;;;2.03;0.17;;;;;;;6.02;74.39;102855.81;5040054;28;20052;-45
2023/03/01 05:48:05;;;;;;;1.88;0.55;;;;;;;6.00;74.69;102858.84;5045242;28;20058;-45
2023/03/01 05:50:38;;;;;;;3.85;0.40;;;;;;;6.01;75.03;102865.16;5047529;28;20057;-46
2023/03/01 05:53:13;;;;;;;1.95;0.63;;;;;;;6.00;75.03;102869.00;5041860;28;20047;-46
2023/03/01 05:55:42;;;;;;;1.48;0.70;;;;;;;5.98;75.37;102865.69;5052022;28;20057;-47
2023/03/01 05:58:14;;;;;;;5.47;0.60;;;;;;;5.94;75.74;102865.38;5044926;28;20120;-47
2023/03/01 06:00:42;;;;;;;1.73;0.57;;;;;;;5.91;76.22;102870.56;5044621;28;20040;-48
2023/03/01 06:03:13;;;;;;;1.95;0.47;;;;;;;5.90;76.36;102874.41;5044494;28;20057;-47
2023/03/01 06:05:42;;;;;;;5.93;0.93;;;;;;;5.89;76.50;102872.75;5045507;28;20048;-55
2023/03/01 06:08:10;;;;;;;6.70;0.73;;;;;;;5.89;76.33;102879.09;5046447;28;20483;-50
2023/03/01 06:10:37;;;;;;;4.53;0.65;;;;;;;5.89;76.33;102872.75;5040377;28;20126;-48
2023/03/01 06:13:04;;;;;;;2.38;0.50;;;;;;;5.89;76.78;102867.25;5042156;28;20041;-47
2023/03/01 06:15:31;;;;;;;5.60;0.40;;;;;;;5.88;76.76;102866.41;5040819;28;20041;-48
2023/03/01 06:17:58;;;;;;;4.03;0.50;;;;;;;5.87;76.72;102874.94;5041662;28;20045;-46
2023/03/01 06:20:28;;;;;;;1.95;0.30;;;;;;;5.87;76.50;102881.28;5043751;28;20116;-49
2023/03/01 06:22:56;;;;;;;7.13;0.60;;;;;;;5.89;76.22;102889.25;5042230;28;20124;-49
2023/03/01 06:25:24;;;;;;;1.55;0.50;;;;;;;5.91;76.66;102882.38;5044364;28;20388;-47
2023/03/01 06:27:58;;;;;;;3.80;0.60;;;;;;;5.94;76.28;102870.03;5038422;28;20488;-48
2023/03/01 06:30:25;;;;;;;2.00;0.63;;;;;;;5.96;76.34;102887.09;5049951;28;20049;-47
2023/03/01 06:32:52;;;;;;;1.77;0.50;;;;;;;5.98;76.44;102887.69;5050984;28;20048;-46
2023/03/01 06:35:19;;;;;;;6.72;0.80;;;;;;;6.00;76.16;102888.25;5033250;28;20041;-46
2023/03/01 06:37:47;;;;;;;3.72;0.50;;;;;;;6.01;76.22;102885.22;5051205;28;20103;-47
2023/03/01 06:40:14;;;;;;;4.45;0.50;;;;;;;6.01;76.19;102876.16;5051257;28;20463;-47
2023/03/01 06:42:43;;;;;;;1.85;0.40;;;;;;;6.01;76.11;102885.22;5050995;28;20518;-47
2023/03/01 06:45:11;;;;;;;2.35;0.40;;;;;;;6.02;76.25;102883.31;5050847;28;20045;-49
2023/03/01 06:47:38;;;;;;;4.85;0.73;;;;;;;6.02;75.94;102880.56;5051635;28;20098;-46
2023/03/01 06:50:05;;;;;;;3.75;0.50;;;;;;;6.03;76.09;102884.97;5050970;28;20056;-53
2023/03/01 06:52:32;;;;;;;3.80;0.45;;;;;;;6.03;75.92;102871.22;5051183;28;20041;-47
2023/03/01 06:54:58;;;;;;;2.33;0.40;;;;;;;6.04;76.18;102886.63;5050765;28;20500;-46
2023/03/01 06:57:27;;;;;;;4.35;0.43;;;;;;;6.03;76.03;102873.97;5048389;28;20130;-47
2023/03/01 06:59:53;;;;;;;4.70;0.65;;;;;;;6.03;75.97;102879.47;5047690;28;20110;-46
2023/03/01 07:02:20;;;;;;;2.22;0.57;;;;;;;6.03;75.76;102863.81;5047955;28;20056;-48
2023/03/01 07:04:49;;;;;;;1.42;0.50;;;;;;;6.02;75.75;102875.88;5048330;28;20055;-46
2023/03/01 07:07:18;;;;;;;5.90;0.60;;;;;;;6.04;75.82;102870.94;5048433;28;20111;-48
2023/03/01 07:09:46;;;;;;;4.53;0.40;;;;;;;6.05;75.78;102880.03;5048340;28;20049;-48
2023/03/01 07:12:13;;;;;;;4.90;0.73;;;;;;;6.04;75.77;102884.69;5028965;28;20148;-47
2023/03/01 07:14:39;;;;;;;3.20;0.85;;;;;;;6.04;75.61;102883.88;5044435;28;20047;-51
2023/03/01 07:17:06;;;;;;;7.22;0.68;;;;;;;6.04;75.65;102886.63;5028190;28;20049;-46
2023/03/01 07:19:33;;;;;;;1.40;0.40;;;;;;;6.03;75.49;102885.81;5038589;28;20055;-48
2023/03/01 07:22:01;;;;;;;2.35;0.45;;;;;;;6.04;75.75;102884.69;5043077;28;20041;-48
2023/03/01 07:24:28;;;;;;;2.92;0.68;;;;;;;6.06;75.67;102893.50;5045552;28;20051;-46
2023/03/01 07:26:54;;;;;;;1.50;0.50;;;;;;;6.06;75.79;102889.94;5048628;28;20059;-49
2023/03/01 07:29:21;;;;;;;3.25;0.70;;;;;;;6.08;75.74;102894.09;5045389;28;20104;-46
2023/03/01 07:31:48;;;;;;;7.35;1.00;;;;;;;6.11;75.71;102898.25;5040719;28;20482;-46
2023/03/01 07:34:14;;;;;;;3.15;0.60;;;;;;;6.11;75.69;102895.50;5040276;28;20045;-48
2023/03/01 07:36:42;;;;;;;0.63;0.50;;;;;;;6.11;75.45;102898.25;5042363;28;20437;-49
2023/03/01 07:39:10;;;;;;;1.65;0.50;;;;;;;6.12;75.34;102899.88;5042475;28;20047;-47
2023/03/01 07:41:37;;;;;;;3.50;0.93;;;;;;;6.14;75.43;102887.53;5050493;28;20051;-47
2023/03/01 07:44:05;;;;;;;5.78;1.50;;;;;;;6.16;75.21;102890.03;5049879;28;20564;-48
2023/03/01 07:46:32;;;;;;;3.58;1.05;;;;;;;6.17;75.22;102890.84;5049289;28;20067;-46
2023/03/01 07:48:59;;;;;;;7.13;1.33;;;;;;;6.16;75.22;102895.53;5050144;28;20410;-47
2023/03/01 07:51:26;;;;;;;4.88;0.57;;;;;;;6.18;75.15;102889.75;5049279;28;20048;-46
2023/03/01 07:53:52;;;;;;;2.45;0.60;;;;;;;6.19;75.22;102888.66;5049977;28;20037;-49
2023/03/01 07:56:21;;;;;;;3.92;0.57;;;;;;;6.18;74.97;102896.09;5049529;28;20893;-46
2023/03/01 07:58:48;;;;;;;5.50;1.13;;;;;;;6.17;74.64;102891.66;5049964;28;20045;-47
2023/03/01 08:01:18;;;;;;;3.00;0.47;;;;;;;6.17;74.89;102891.66;5049781;28;20053;-50
2023/03/01 08:03:45;;;;;;;5.93;0.80;;;;;;;6.16;74.64;102890.03;5049502;28;20167;-50
2023/03/01 08:06:14;;;;;;;1.70;0.47;;;;;;;6.18;74.42;102887.00;5049693;28;20368;-46
2023/03/01 08:08:41;;;;;;;2.10;0.98;;;;;;;6.17;74.56;102888.91;5049078;28;20057;-48
2023/03/01 08:11:11;;;;;;;0.75;0.32;;;;;;;6.18;74.27;102890.59;5049827;28;20056;-49
2023/03/01 08:13:37;;;;;;;5.78;0.60;;;;;;;6.19;74.38;102892.25;5048811;28;20498;-47
2023/03/01 08:16:07;;;;;;;5.20;0.60;;;;;;;6.20;74.39;102890.31;5049263;28;20061;-46
2023/03/01 08:18:34;;;;;;;1.63;0.68;;;;;;;6.21;74.29;102898.31;5048748;28;20076;-46
2023/03/01 08:21:03;;;;;;;1.50;0.60;;;;;;;6.23;74.23;102907.13;5044960;28;20601;-48
2023/03/01 08:23:30;;;;;;;1.73;0.43;;;;;;;6.21;74.22;102903.81;5034865;28;20045;-53
2023/03/01 08:26:18;;;;;;;2.90;0.45;;;;;;;6.23;74.19;102901.63;5033652;28;20050;-46
2023/03/01 08:28:46;;;;;;;5.50;0.50;;;;;;;6.23;74.26;102904.38;5045273;28;20041;-46
2023/03/01 08:31:17;;;;;;;3.38;0.93;;;;;;;6.23;74.27;102907.13;5025149;28;20041;-47
2023/03/01 08:33:50;;;;;;;3.95;0.52;;;;;;;6.23;74.32;102896.13;5048063;28;20049;-48
2023/03/01 08:36:18;;;;;;;1.55;0.57;;;;;;;6.22;74.26;102899.97;5041251;28;20056;-46
2023/03/01 08:38:45;;;;;;;2.70;0.60;;;;;;;6.24;74.34;102906.03;5044596;28;20221;-52
2023/03/01 08:41:13;;;;;;;2.70;0.30;;;;;;;6.23;74.33;102898.03;5042388;28;20572;-47
2023/03/01 08:43:40;;;;;;;3.78;0.50;;;;;;;6.24;74.42;102892.28;5043000;28;20045;-47
2023/03/01 08:46:07;;;;;;;3.03;0.32;;;;;;;6.27;74.14;102905.53;5041105;28;20124;-50
2023/03/01 08:48:39;;;;;;;;;;;;;;;6.31;74.20;102901.13;5044206;28;20045;-49
2023/03/01 08:51:10;;;;;;;2.53;0.40;;;;;;;6.34;74.18;102897.03;5047848;28;19931;-47
2023/03/01 08:53:41;;;;;;;8.15;2.15;;;;;;;6.37;74.22;102905.59;5045077;28;20052;-50
2023/03/01 08:56:08;;;;;;;3.20;0.57;;;;;;;6.42;74.05;102893.78;5045299;28;20064;-49
2023/03/01 08:58:36;;;;;;;1.63;1.08;;;;;;;6.46;74.00;102900.44;5044925;28;20560;-50
2023/03/01 09:01:11;;;;;;;3.75;0.40;;;;;;;6.50;73.94;102898.78;5043024;28;20074;-49
2023/03/01 09:03:38;;;;;;;1.63;0.70;;;;;;;6.54;73.81;102900.72;5050439;28;20128;-49
2023/03/01 09:06:10;;;;;;;6.35;0.68;;;;;;;6.61;73.67;102903.25;5041982;28;20502;-49
2023/03/01 09:08:38;;;;;;;0.30;0.30;;;;;;;6.65;73.57;102907.13;5046668;28;20041;-47
2023/03/01 09:11:07;;;;;;;2.10;0.35;;;;;;;6.67;73.11;102919.53;5044476;28;20110;-50
2023/03/01 17:51:28;;;;;;;7.55;1.70;;;;;;;7.14;69.99;102461.44;5027660;22;20057;-47
2023/03/01 17:54:16;;;;;;;7.35;2.63;;;;;;;7.13;70.29;102462.53;5045814;23;20049;-44
2023/03/01 17:57:03;;;;;;;9.88;3.40;;;;;;;7.15;70.38;102457.56;5034846;28;20056;-45
2023/03/01 17:59:50;;;;;;;7.63;2.13;;;;;;;7.11;70.48;102457.31;5046504;28;20060;-45
2023/03/01 18:02:37;;;;;;;3.03;1.20;;;;;;;7.08;70.63;102457.06;5047860;28;20052;-44
2023/03/01 18:05:24;;;;;;;2.53;0.90;;;;;;;7.04;70.88;102458.72;5030198;28;20049;-47
2023/03/01 18:08:11;;;;;;;7.65;1.15;;;;;;;7.02;70.86;102453.47;5066669;28;20051;-46
2023/03/01 18:10:59;;;;;;;4.78;1.02;;;;;;;7.01;71.03;102456.53;5064044;28;20058;-45
2023/03/01 18:13:46;;;;;;;2.88;1.45;;;;;;;6.99;71.09;102453.25;5046215;28;20049;-48
2023/03/01 18:16:34;;;;;;;6.80;1.90;;;;;;;6.97;71.14;102455.41;5047313;28;20045;-47
2023/03/01 18:19:21;;;;;;;6.05;2.00;;;;;;;6.95;71.21;102454.88;5047127;28;20514;-45
2023/03/01 18:22:08;;;;;;;5.55;1.55;;;;;;;6.91;71.50;102453.81;5045036;28;20419;-48
2023/03/01 18:24:55;;;;;;;5.10;2.03;;;;;;;6.92;71.61;102449.94;5030623;28;20494;-50
2023/03/01 18:27:42;;;;;;;4.60;1.63;;;;;;;6.93;71.68;102459.84;5029349;28;20053;-45
2023/03/01 18:30:29;;;;;;;4.28;1.50;;;;;;;6.94;71.79;102455.97;5029765;28;20061;-47
2023/03/01 18:33:16;;;;;;;6.68;2.00;;;;;;;6.94;71.88;102451.31;5028715;28;20053;-47
2023/03/01 18:36:04;;;;;;;3.50;1.20;;;;;;;6.98;71.90;102451.56;5040241;28;20052;-53
2023/03/01 18:38:32;;;;;;;13.05;1.85;;;;;;;6.99;71.98;102459.53;5051475;28;20049;-44
2023/03/01 18:41:00;;;;;;;6.60;1.52;;;;;;;6.98;72.43;102457.91;5051521;28;20056;-45
2023/03/01 18:43:27;;;;;;;5.25;1.45;;;;;;;7.00;72.33;102463.13;5051503;28;20044;-45
2023/03/01 18:45:58;;;;;;;4.40;2.38;;;;;;;7.05;72.31;102457.59;5051074;28;20143;-47
2023/03/01 18:48:25;;;;;;;3.17;1.67;;;;;;;7.10;72.37;102452.06;5039455;28;20446;-46
2023/03/01 18:50:51;;;;;;;6.95;1.77;;;;;;;7.13;72.30;102449.59;5034310;28;20085;-49
2023/03/01 18:53:18;;;;;;;3.65;1.50;;;;;;;7.15;72.51;102455.66;5050834;28;20104;-45
2023/03/01 18:55:45;;;;;;;4.32;1.58;;;;;;;7.15;72.47;102446.53;5050570;28;20045;-50
2023/03/01 18:58:12;;;;;;;5.82;1.17;;;;;;;7.14;72.60;102450.44;5053659;28;20106;-45
2023/03/01 19:00:38;;;;;;;9.88;2.00;;;;;;;7.16;72.59;102448.22;5049402;28;20064;-45
2023/03/01 19:03:05;;;;;;;4.55;1.73;;;;;;;7.16;72.67;102432.50;5033883;28;20045;-52
2023/03/01 19:05:32;;;;;;;4.63;1.67;;;;;;;7.16;72.80;102437.19;5045443;28;20041;-47
2023/03/01 19:07:58;;;;;;;5.10;1.90;;;;;;;7.18;72.95;102434.97;5043738;28;20057;-45
2023/03/01 19:10:25;;;;;;;6.35;1.42;;;;;;;7.17;73.02;102433.34;5039134;28;20052;-48
2023/03/01 19:12:52;;;;;;;4.05;1.63;;;;;;;7.15;73.02;102436.38;5036619;28;20049;-46
2023/03/01 19:15:19;;;;;;;7.18;1.55;;;;;;;7.17;73.31;102427.84;5037207;28;20049;-45
2023/03/01 19:17:45;;;;;;;8.43;2.25;;;;;;;7.19;73.40;102422.88;5033882;28;20095;-47
2023/03/01 19:20:12;;;;;;;7.70;1.90;;;;;;;7.21;73.34;102426.16;5041614;28;20514;-46
2023/03/01 19:22:39;;;;;;;9.60;1.92;;;;;;;7.21;73.57;102426.97;5037094;28;20045;-45
2023/03/01 19:25:06;;;;;;;12.00;2.72;;;;;;;7.22;73.54;102430.56;5040165;28;20576;-49
2023/03/01 19:27:33;;;;;;;3.58;1.17;;;;;;;7.21;73.68;102420.63;5041484;28;20128;-46
2023/03/01 19:30:00;;;;;;;5.95;1.48;;;;;;;7.22;73.92;102419.56;5038792;28;20039;-45
2023/03/01 19:32:26;;;;;;;8.80;2.00;;;;;;;7.21;74.10;102423.41;5039026;28;20516;-46
2023/03/01 19:34:53;;;;;;;6.85;1.95;;;;;;;7.20;74.05;102424.53;5041761;28;20052;-52
2023/03/01 19:37:19;;;;;;;5.65;1.88;;;;;;;7.20;74.16;102427.28;5044722;28;20063;-45
2023/03/01 19:39:46;;;;;;;5.65;1.98;;;;;;;7.19;74.15;102420.94;5032451;28;20387;-45
2023/03/01 19:42:13;;;;;;;6.20;2.00;;;;;;;7.18;74.39;102419.28;5036059;28;20509;-48
2023/03/01 19:44:40;;;;;;;5.80;1.73;;;;;;;7.20;74.29;102421.78;5042328;28;20397;-46
2023/03/01 19:47:06;;;;;;;6.70;1.92;;;;;;;7.20;74.33;102421.78;5038353;28;20639;-45
2023/03/01 19:49:36;;;;;;;5.22;1.73;;;;;;;7.21;74.33;102424.22;5045392;28;20049;-46
2023/03/01 19:52:03;;;;;;;3.42;2.05;;;;;;;7.24;74.33;102422.84;5040813;28;20390;-46
2023/03/01 19:54:30;;;;;;;3.47;1.52;;;;;;;7.25;74.40;102421.75;5035049;28;20075;-46
2023/03/01 19:56:59;;;;;;;4.45;3.22;;;;;;;7.26;74.26;102417.88;5038958;28;20052;-46
2023/03/01 19:59:27;;;;;;;7.55;2.60;;;;;;;7.28;74.39;102407.41;5032970;28;20044;-46
2023/03/01 20:01:54;;;;;;;4.18;1.80;;;;;;;7.29;74.23;102414.56;5038089;28;20049;-45
2023/03/01 20:04:21;;;;;;;9.55;2.33;;;;;;;7.31;74.13;102395.78;5041283;28;20152;-45
2023/03/01 20:06:48;;;;;;;4.65;1.10;;;;;;;7.29;73.91;102406.28;5038065;28;20049;-47
2023/03/01 20:09:15;;;;;;;6.85;1.42;;;;;;;7.28;73.69;102405.47;5040905;28;20658;-46
2023/03/01 20:11:49;;;;;;;7.50;1.10;;;;;;;7.25;73.49;102392.25;5042075;28;20394;-47
2023/03/01 20:14:15;;;;;;;3.85;1.10;;;;;;;7.27;73.39;102409.34;5046523;28;20045;-52
2023/03/01 20:16:42;;;;;;;4.47;0.88;;;;;;;7.26;73.01;102395.81;5040932;28;20044;-46
2023/03/01 20:19:09;;;;;;;1.73;0.90;;;;;;;7.26;72.89;102401.34;5042421;28;20040;-46
2023/03/01 20:21:35;;;;;;;7.57;1.42;;;;;;;7.25;72.65;102410.72;5036689;28;20070;-46
2023/03/01 20:24:02;;;;;;;1.40;0.63;;;;;;;7.24;72.36;102393.38;5043766;28;20461;-48
2023/03/01 20:26:29;;;;;;;2.65;1.15;;;;;;;7.24;72.08;102389.78;5041515;28;20168;-47